createdAt,value
2018-02-01T00:02:37.138Z,35.43
2018-02-01T00:17:36.801Z,32.73
2018-02-01T00:32:36.467Z,33.70
2018-02-01T00:47:34.421Z,25.97
2018-02-01T01:02:36.895Z,32.43
2018-02-01T01:17:38.524Z,28.40
2018-02-01T01:32:36.983Z,28.90
2018-02-01T01:47:34.611Z,29.17
2018-02-01T02:02:35.104Z,29.17
2018-02-01T02:17:34.541Z,27.13
2018-02-01T02:32:43.381Z,27.07
2018-02-01T02:47:35.725Z,25.43
2018-02-01T03:02:34.300Z,24.53
2018-02-01T03:17:37.680Z,25.13
2018-02-01T03:32:36.660Z,26.10
2018-02-01T03:47:40.490Z,21.90
2018-02-01T04:02:40.674Z,23.50
2018-02-01T04:17:35.931Z,21.93
2018-02-01T04:32:35.947Z,20.57
2018-02-01T04:47:36.815Z,21.60
2018-02-01T05:02:35.621Z,20.23
2018-02-01T05:17:36.381Z,22.70
2018-02-01T05:32:35.716Z,21.93
2018-02-01T05:47:36.322Z,23.80
2018-02-01T06:02:35.009Z,25.23
2018-02-01T06:17:34.892Z,27.97
2018-02-01T06:32:35.738Z,30.00
2018-02-01T06:47:36.287Z,23.03
2018-02-01T07:02:36.738Z,24.90
2018-02-01T07:17:34.591Z,24.70
2018-02-01T07:32:35.152Z,29.30
2018-02-01T07:47:39.572Z,36.20
2018-02-01T08:02:41.573Z,31.97
2018-02-01T08:17:40.766Z,35.40
2018-02-01T08:32:36.756Z,32.83
2018-02-01T08:47:36.825Z,31.60
2018-02-01T09:02:39.335Z,28.60
2018-02-01T09:32:35.119Z,31.00
2018-02-01T09:47:36.211Z,31.50
2018-02-01T10:02:34.556Z,34.30
2018-02-01T10:17:38.363Z,24.00
2018-02-01T10:32:37.401Z,13.03
2018-02-01T10:47:35.663Z,22.93
2018-02-01T11:02:37.522Z,27.20
2018-02-01T11:17:37.704Z,15.33
2018-02-01T11:32:36.295Z,14.10
2018-02-01T11:47:36.326Z,10.57
2018-02-01T12:02:36.036Z,9.97
2018-02-01T12:17:37.088Z,9.43
2018-02-01T12:32:34.959Z,14.00
2018-02-01T12:47:35.473Z,23.03
2018-02-01T13:02:35.671Z,22.57
2018-02-01T13:17:34.948Z,21.00
2018-02-01T13:32:35.878Z,18.40
2018-02-01T13:47:36.801Z,21.80
2018-02-01T14:02:37.992Z,22.80
2018-02-01T14:17:37.150Z,14.80
2018-02-01T14:47:35.045Z,6.50
2018-02-01T15:02:35.712Z,9.43
2018-02-01T15:17:35.208Z,13.43
2018-02-01T15:32:39.010Z,14.90
2018-02-01T15:47:42.293Z,13.63
2018-02-01T16:17:34.777Z,19.37
2018-02-01T16:32:36.197Z,23.70
2018-02-01T16:47:39.030Z,25.20
2018-02-01T17:17:36.855Z,26.03
2018-02-01T17:32:36.819Z,25.30
2018-02-01T17:47:36.224Z,25.07
2018-02-01T18:02:37.992Z,24.97
2018-02-01T20:32:38.084Z,24.47
2018-02-01T20:47:36.150Z,25.27
2018-02-01T21:02:35.244Z,22.87
2018-02-01T21:17:37.736Z,19.13
2018-02-01T21:32:35.991Z,18.20
2018-02-01T21:47:38.666Z,18.07
2018-02-01T22:02:37.974Z,20.33
2018-02-01T22:17:32.813Z,19.20
2018-02-01T22:32:33.915Z,19.80
2018-02-01T22:47:37.481Z,20.30
2018-02-01T23:02:36.493Z,21.50
2018-02-01T23:17:34.210Z,20.13
2018-02-01T23:32:35.792Z,18.63
2018-02-01T23:47:37.728Z,18.00
